createdAt,value
2024-02-09T00:02:44.617Z,10.7
2024-02-09T00:12:44.778Z,11.5
2024-02-09T00:22:44.649Z,15.6
2024-02-09T00:32:44.716Z,10.5
2024-02-09T00:52:44.655Z,11.0
2024-02-09T01:02:44.742Z,10.7
2024-02-09T01:12:44.634Z,13.3
2024-02-09T01:22:44.644Z,12.7
2024-02-09T01:42:44.656Z,10.9
2024-02-09T01:52:44.748Z,10.8
2024-02-09T02:02:44.661Z,11.0
2024-02-09T02:12:44.694Z,10.2
2024-02-09T02:22:44.692Z,8.6
2024-02-09T02:32:44.779Z,10.3
2024-02-09T02:42:44.682Z,12.4
2024-02-09T02:52:44.720Z,12.2
2024-02-09T03:02:44.676Z,9.3
2024-02-09T03:12:44.727Z,10.1
2024-02-09T03:22:44.717Z,6.1
2024-02-09T03:32:44.712Z,5.3
2024-02-09T03:42:44.708Z,4.3
2024-02-09T03:52:44.749Z,9.3
2024-02-09T04:02:44.715Z,5.8
2024-02-09T04:12:44.729Z,10.0
2024-02-09T04:22:44.712Z,5.6
2024-02-09T04:32:44.781Z,3.2
2024-02-09T04:42:44.741Z,5.1
2024-02-09T04:52:44.766Z,5.6
2024-02-09T05:02:44.724Z,2.9
2024-02-09T05:12:44.756Z,4.0
2024-02-09T05:32:44.792Z,1.5
2024-02-09T05:52:44.783Z,3.1
2024-02-09T06:22:44.903Z,3.5
2024-02-09T06:32:44.803Z,3.0
2024-02-09T06:42:44.869Z,3.7
2024-02-09T06:52:44.860Z,3.2
2024-02-09T07:22:44.836Z,3.9
2024-02-09T07:32:44.874Z,3.8
2024-02-09T07:52:45.177Z,4.2
2024-02-09T08:02:44.800Z,4.6
2024-02-09T08:12:44.792Z,4.0
2024-02-09T08:23:09.489Z,4.8
2024-02-09T08:32:44.866Z,4.7
2024-02-09T08:42:47.796Z,8.3
2024-02-09T08:52:44.865Z,5.8
2024-02-09T09:02:44.839Z,4.1
2024-02-09T09:12:44.824Z,4.1
2024-02-09T09:22:44.905Z,4.5
2024-02-09T09:32:44.877Z,6.0
2024-02-09T09:42:44.842Z,6.5
2024-02-09T09:52:45.024Z,6.1
2024-02-09T10:02:44.867Z,5.3
2024-02-09T10:12:44.862Z,4.7
2024-02-09T10:32:44.903Z,6.2
2024-02-09T10:42:44.870Z,3.2
2024-02-09T10:52:45.019Z,5.7
2024-02-09T11:02:44.902Z,4.7
2024-02-09T11:13:34.421Z,4.8
2024-02-09T11:23:09.579Z,2.8
2024-02-09T11:33:34.250Z,5.8
2024-02-09T11:42:44.892Z,2.0
2024-02-09T11:53:00.479Z,2.7
2024-02-09T12:02:44.898Z,4.1
2024-02-09T12:12:44.899Z,4.9
2024-02-09T12:22:44.973Z,4.2
2024-02-09T12:32:45.193Z,4.1
2024-02-09T12:52:45.110Z,7.2
2024-02-09T13:12:44.928Z,2.8
2024-02-09T13:22:44.933Z,5.2
2024-02-09T13:32:44.962Z,3.8
2024-02-09T13:42:44.943Z,5.3
2024-02-09T13:53:09.603Z,4.5
2024-02-09T14:02:44.944Z,3.1
2024-02-09T14:12:44.947Z,3.1
2024-02-09T14:22:45.049Z,1.9
2024-02-09T14:32:44.980Z,4.8
2024-02-09T14:42:44.967Z,2.3
2024-02-09T14:53:09.632Z,3.3
2024-02-09T15:13:09.710Z,6.8
2024-02-09T15:22:45.042Z,3.3
2024-02-09T15:32:45.039Z,5.7
2024-02-09T15:42:44.990Z,5.2
2024-02-09T15:52:45.144Z,6.1
2024-02-09T16:02:45.046Z,2.9
2024-02-09T16:23:09.675Z,4.8
2024-02-09T16:32:45.051Z,3.0
2024-02-09T16:43:09.703Z,2.7
2024-02-09T16:52:45.105Z,4.6
2024-02-09T17:02:45.009Z,3.3
2024-02-09T17:12:45.013Z,3.3
2024-02-09T17:22:45.119Z,5.7
2024-02-09T17:33:09.761Z,4.4
2024-02-09T17:42:45.028Z,8.0
2024-02-09T17:53:09.705Z,3.8
2024-02-09T18:02:45.061Z,3.0
2024-02-09T18:12:45.043Z,5.2
2024-02-09T18:22:45.078Z,5.0
2024-02-09T18:32:45.070Z,8.1
2024-02-09T18:42:45.046Z,5.8
2024-02-09T18:52:45.102Z,6.3
2024-02-09T19:02:45.079Z,6.0
2024-02-09T19:12:45.051Z,4.5
2024-02-09T19:23:09.725Z,5.8
2024-02-09T19:32:45.103Z,7.3
2024-02-09T19:43:09.766Z,4.8
2024-02-09T19:52:45.219Z,5.4
2024-02-09T20:02:48.275Z,5.8
2024-02-09T20:12:45.097Z,4.4
2024-02-09T20:22:45.097Z,6.5
2024-02-09T20:32:45.110Z,8.1
2024-02-09T20:42:45.274Z,7.2
2024-02-09T20:52:45.181Z,6.6
2024-02-09T21:02:45.099Z,8.2
2024-02-09T21:12:45.102Z,9.5
2024-02-09T21:22:45.154Z,10.4
2024-02-09T21:32:45.165Z,10.0
2024-02-09T21:42:45.110Z,6.0
2024-02-09T21:52:45.188Z,6.4
2024-02-09T22:02:45.297Z,4.4
2024-02-09T22:22:45.327Z,7.3
2024-02-09T22:32:45.238Z,10.4
2024-02-09T22:42:45.132Z,6.4
2024-02-09T22:52:45.158Z,7.1
2024-02-09T23:02:45.143Z,5.1
2024-02-09T23:12:45.144Z,5.7
2024-02-09T23:22:45.219Z,4.9
2024-02-09T23:32:45.169Z,3.7
2024-02-09T23:42:45.163Z,5.6
2024-02-09T23:52:45.202Z,4.2
